Airfield :
LOGIN :

Register | Disclaimer

   EN    FR    IT 

 










Legend :    VFR   Marginal VFR   IFR   Intensive IFR   Very Intensive IFR
Visi :
Ceiling :
>= 8 km
>= 3000ft
5 to 8 km
1000 to 3000 ft
1500m to 5 km
500 to 1000 ft
800 to 1500m
200 to 500 ft
< 800m
< 200 ft
Symbols :   Thunderstorms  Fog  Heavy snow  Heavy precipitations  Wind > 20 kt
SIGMETs :     Misc.  Thunderstorms  Icing  Turbulence  Mountain Waves  Volcanic Ashes






- Airport Elevation : 76 ft
- IATA code : KID


ESMK - Kristianstad

CURRENT METAR :
  • 201850Z 10011KT 6000 SCT006 BKN008 OVC010 08/07 Q1019

EXPIRED METARs :
  • 201820Z 10010KT 5000 BR OVC006 08/07 Q1019
  • 201750Z 10012KT 6000 BR BKN006 OVC009 08/07 Q1019
  • 201720Z 10011KT 6000 BKN006 OVC011 08/07 Q1019
  • 201650Z 10011KT 7000 FEW007 SCT008 BKN010 08/07 Q1019
  • 201620Z 09012KT 8000 BR FEW008 SCT009 BKN011 08/07 Q1019

TAF TAF ESMK
Valid from the 20 at 18:00 until the 20 at 21:00 UTC


201710Z 2018/2021 09010KT 7000 BKN005
TEMPO 2018/2020 4000 -RADZ BR BKN010
PROB40 2020/2021 1200 BR BKN002



MET'MAP, your aeronautical weather chart ! - Copyright ORBIFLY December 2007 - Disclaimer

ORBIFLY MET'MAP TEAM :

Programming & Development : Alexandra Zaïnal
Concept & Development : Baudouin d'Aumeries
Co-Development & Prog : Marc-Olivier Méhu
Technical & hardware support : Manuel Goepfert

Contact : metmap@orbifly.com




SOURCES & CREDITS :

   NOAA